Terminal Aerodrome Forecast
Issued by NWS

Home | Current Version | Previous Version | Text Only | Print | Product List | Glossary On
Versions: 1 2 3 4 5 6 7 8 9 10 11 12 13 14 15 16 17 18
000
FTUS42 KTAE 291000 AAC
TAFABY
TAF AMD
KABY 291007Z 2910/3006 00000KT 1SM +RA BR FEW007 BKN022 OVC027
     FM291200 25005KT 5SM -RA BR SCT007 BKN020
     FM300200 34005KT 5SM -RA BR OVC015=

USA.gov is the U.S. government's official web portal to all federal, state and local government web resources and services.